Time;durP1;ratioP1;P1;durP2;ratioP2;P2;SDS_P1;SDS_P2;PMS_P1;PMS_P2;Temp;Humidity;BMP_temperature;BMP_pressure;BME280_temperature;BME280_humidity;BME280_pressure;Samples;Min_cycle;Max_cycle;Signal;HPM_P1;HPM_P2
2022/02/02 00:01:43;;;;;;;0.60;0.60;;;;;;;;;;1865011;76;26335;-40
2022/02/02 00:04:00;;;;;;;0.68;0.68;;;;;;;;;;1874693;76;26261;-42
2022/02/02 00:06:38;;;;;;;0.55;0.55;;;;;;;;;;1878299;75;26265;-42
2022/02/02 00:09:04;;;;;;;0.70;0.70;;;;;;;;;;1870692;76;26363;-40
2022/02/02 00:14:20;;;;;;;0.60;0.60;;;;;;;;;;1881918;75;26285;-42
2022/02/02 00:21:47;;;;;;;0.60;0.60;;;;;;;;;;1842767;76;26308;-41
2022/02/02 00:24:20;;;;;;;0.50;0.50;;;;;;;;;;1877513;76;26298;-42
2022/02/02 00:26:42;;;;;;;0.60;0.60;;;;;;;;;;1881822;76;26321;-40
2022/02/02 00:29:13;;;;;;;0.60;0.60;;;;;;;;;;1889411;76;26682;-40
2022/02/02 00:31:42;;;;;;;0.50;0.50;;;;;;;;;;1888969;76;26277;-40
2022/02/02 00:34:09;;;;;;;0.60;0.60;;;;;;;;;;1866639;76;26342;-41
2022/02/02 00:36:46;;;;;;;0.57;0.57;;;;;;;;;;1887879;76;26356;-40
2022/02/02 00:39:06;;;;;;;0.57;0.57;;;;;;;;;;1885856;76;26336;-41
2022/02/02 00:41:33;;;;;;;0.60;0.60;;;;;;;;;;1890429;76;26323;-40
2022/02/02 00:44:02;;;;;;;0.60;0.60;;;;;;;;;;1890397;76;26760;-40
2022/02/02 00:46:30;;;;;;;0.60;0.60;;;;;;;;;;1890417;75;26749;-40
2022/02/02 00:49:05;;;;;;;0.60;0.60;;;;;;;;;;1888870;75;26326;-41
2022/02/02 00:54:14;;;;;;;0.60;0.60;;;;;;;;;;1871927;76;26281;-40
2022/02/02 00:56:42;;;;;;;0.50;0.50;;;;;;;;;;1871176;76;26298;-40
2022/02/02 00:59:10;;;;;;;0.50;0.50;;;;;;;;;;1871502;76;26783;-40
2022/02/02 01:01:38;;;;;;;0.70;0.70;;;;;;;;;;1879365;76;26264;-40
2022/02/02 01:04:05;;;;;;;0.72;0.72;;;;;;;;;;1890036;76;26867;-45
2022/02/02 01:06:37;;;;;;;0.60;0.60;;;;;;;;;;1888744;75;26346;-40
2022/02/02 01:09:22;;;;;;;0.70;0.70;;;;;;;;;;1894123;75;26334;-40
2022/02/02 01:27:49;;;;;;;0.60;0.60;;;;;;;;;;1879953;76;26285;-42
2022/02/02 01:29:50;;;;;;;0.60;0.60;;;;;;;;;;1871072;75;26417;-41
2022/02/02 01:32:17;;;;;;;0.60;0.60;;;;;;;;;;1876991;76;26272;-41
2022/02/02 01:34:45;;;;;;;0.78;0.78;;;;;;;;;;1874031;76;26222;-40
2022/02/02 01:37:12;;;;;;;0.50;0.50;;;;;;;;;;1870091;76;26263;-41
2022/02/02 01:39:39;;;;;;;0.60;0.60;;;;;;;;;;1870391;76;26251;-40
2022/02/02 01:42:11;;;;;;;0.60;0.60;;;;;;;;;;1873714;76;26200;-41
2022/02/02 01:44:46;;;;;;;0.60;0.60;;;;;;;;;;1867440;76;26368;-40
2022/02/02 01:47:07;;;;;;;0.60;0.60;;;;;;;;;;1887036;75;26202;-44
2022/02/02 01:52:25;;;;;;;0.57;0.57;;;;;;;;;;1861729;76;26246;-40
2022/02/02 01:57:46;;;;;;;0.60;0.60;;;;;;;;;;1865759;76;26810;-40
2022/02/02 01:59:44;;;;;;;0.70;0.70;;;;;;;;;;1856718;76;26277;-40
2022/02/02 02:02:11;;;;;;;0.55;0.55;;;;;;;;;;1886004;76;26803;-43
2022/02/02 02:04:39;;;;;;;0.60;0.60;;;;;;;;;;1887944;74;26194;-40
2022/02/02 02:07:06;;;;;;;0.70;0.70;;;;;;;;;;1859236;75;26205;-45
2022/02/02 02:09:34;;;;;;;0.60;0.60;;;;;;;;;;1873783;75;26237;-42
2022/02/02 02:12:03;;;;;;;0.80;0.80;;;;;;;;;;1858515;76;26338;-41
2022/02/02 02:15:31;;;;;;;0.70;0.70;;;;;;;;;;1871293;76;26340;-40
2022/02/02 02:17:08;;;;;;;0.70;0.70;;;;;;;;;;1859467;76;26248;-40
2022/02/02 02:19:39;;;;;;;0.70;0.70;;;;;;;;;;1891469;75;26851;-40
2022/02/02 02:22:08;;;;;;;0.62;0.62;;;;;;;;;;1882703;76;26258;-40
2022/02/02 02:24:38;;;;;;;0.80;0.80;;;;;;;;;;1884295;74;26424;-40
2022/02/02 02:27:05;;;;;;;0.65;0.65;;;;;;;;;;1867447;76;26276;-41
2022/02/02 02:32:18;;;;;;;0.72;0.72;;;;;;;;;;1859695;76;26288;-41
2022/02/02 02:55:59;;;;;;;0.72;0.72;;;;;;;;;;1888642;75;26799;-40
2022/02/02 03:50:52;;;;;;;0.70;0.70;;;;;;;;;;1870683;76;26212;-41
2022/02/02 03:55:35;;;;;;;0.72;0.72;;;;;;;;;;1815437;76;26296;-40
2022/02/02 04:05:48;;;;;;;0.90;0.90;;;;;;;;;;1879462;75;26278;-42
2022/02/02 04:08:29;;;;;;;0.82;0.82;;;;;;;;;;1867579;76;26249;-40
2022/02/02 04:10:57;;;;;;;0.78;0.78;;;;;;;;;;1835769;76;27386;-40
2022/02/02 04:14:14;;;;;;;0.80;0.80;;;;;;;;;;1864293;76;26293;-40
2022/02/02 04:38:09;;;;;;;0.62;0.62;;;;;;;;;;1869540;76;26324;-44
2022/02/02 04:51:42;;;;;;;0.70;0.70;;;;;;;;;;1874333;76;26323;-40
2022/02/02 05:07:42;;;;;;;0.70;0.70;;;;;;;;;;1761206;80;26645;-41
2022/02/02 05:10:14;;;;;;;0.72;0.72;;;;;;;;;;1818723;76;26258;-41
2022/02/02 05:13:28;;;;;;;0.70;0.70;;;;;;;;;;1855739;76;26360;-42
2022/02/02 05:45:09;;;;;;;1.15;0.70;;;;;;;;;;1867115;75;26364;-40
2022/02/02 05:52:41;;;;;;;1.07;0.88;;;;;;;;;;1866441;76;26348;-38
2022/02/02 05:55:09;;;;;;;3.25;0.80;;;;;;;;;;1867420;76;26257;-39
2022/02/02 05:57:37;;;;;;;0.82;0.82;;;;;;;;;;1867650;75;26253;-41
2022/02/02 06:00:05;;;;;;;2.22;0.80;;;;;;;;;;1864175;76;25252;-38
2022/02/02 06:02:36;;;;;;;1.27;1.07;;;;;;;;;;1866250;75;25853;-39
2022/02/02 06:05:07;;;;;;;0.88;0.88;;;;;;;;;;1866294;76;26302;-40
2022/02/02 06:07:36;;;;;;;0.70;0.70;;;;;;;;;;1860546;76;26311;-40
2022/02/02 06:10:04;;;;;;;1.92;0.80;;;;;;;;;;1862149;76;26342;-40
2022/02/02 06:12:32;;;;;;;0.70;0.70;;;;;;;;;;1870646;75;26340;-44
2022/02/02 06:15:07;;;;;;;2.33;0.90;;;;;;;;;;1862146;75;26265;-39
2022/02/02 06:17:29;;;;;;;2.00;0.80;;;;;;;;;;1861172;76;26218;-39
2022/02/02 06:19:57;;;;;;;0.80;0.80;;;;;;;;;;1865762;76;26336;-40
2022/02/02 06:22:26;;;;;;;1.05;0.90;;;;;;;;;;1872647;76;26260;-40
2022/02/02 06:24:54;;;;;;;0.80;0.80;;;;;;;;;;1860448;76;26349;-38
2022/02/02 06:27:26;;;;;;;0.93;0.93;;;;;;;;;;1853944;76;26392;-41
2022/02/02 06:29:55;;;;;;;0.90;0.90;;;;;;;;;;1866275;76;26261;-38
2022/02/02 06:32:24;;;;;;;0.90;0.88;;;;;;;;;;1866515;76;26265;-41
2022/02/02 06:34:53;;;;;;;0.70;0.70;;;;;;;;;;1870225;76;26298;-39
2022/02/02 06:37:20;;;;;;;0.90;0.90;;;;;;;;;;1860226;76;26614;-39
2022/02/02 06:39:50;;;;;;;0.80;0.80;;;;;;;;;;1862633;76;26342;-39
2022/02/02 06:42:17;;;;;;;0.90;0.90;;;;;;;;;;1854372;76;27367;-41
2022/02/02 06:44:45;;;;;;;1.07;0.88;;;;;;;;;;1834681;76;26277;-42
2022/02/02 06:47:13;;;;;;;0.90;0.90;;;;;;;;;;1865663;76;25709;-41
2022/02/02 06:49:43;;;;;;;1.50;0.80;;;;;;;;;;1874851;76;26320;-39
2022/02/02 06:52:15;;;;;;;1.10;0.90;;;;;;;;;;1870592;76;26253;-41
2022/02/02 06:54:49;;;;;;;0.93;0.93;;;;;;;;;;1861992;75;26552;-39
2022/02/02 06:57:19;;;;;;;0.88;0.88;;;;;;;;;;1853482;76;26688;-43
2022/02/02 07:07:59;;;;;;;1.50;1.00;;;;;;;;;;1867627;76;28609;-40
2022/02/02 07:13:08;;;;;;;1.05;0.90;;;;;;;;;;1846272;76;26268;-45
2022/02/02 07:23:39;;;;;;;0.90;0.90;;;;;;;;;;1814390;77;25334;-39
2022/02/02 07:27:03;;;;;;;1.37;0.90;;;;;;;;;;1825997;77;26257;-41
2022/02/02 07:28:44;;;;;;;1.67;1.20;;;;;;;;;;1830574;77;26762;-38
2022/02/02 07:33:32;;;;;;;1.10;1.10;;;;;;;;;;1826795;77;26732;-38
2022/02/02 07:36:11;;;;;;;0.85;0.85;;;;;;;;;;1830069;77;26284;-39
2022/02/02 07:38:42;;;;;;;0.90;0.90;;;;;;;;;;1832797;77;26453;-41
2022/02/02 07:41:13;;;;;;;0.98;0.98;;;;;;;;;;1857537;74;26318;-39
2022/02/02 07:43:42;;;;;;;1.15;1.05;;;;;;;;;;1868459;75;26631;-38
2022/02/02 07:46:10;;;;;;;0.98;0.98;;;;;;;;;;1864326;75;28120;-38
2022/02/02 07:48:39;;;;;;;1.50;1.05;;;;;;;;;;1868166;75;26348;-38
2022/02/02 07:51:08;;;;;;;2.65;1.22;;;;;;;;;;1857805;76;26301;-41
2022/02/02 07:53:41;;;;;;;1.10;1.10;;;;;;;;;;1875143;76;25625;-42
2022/02/02 07:56:12;;;;;;;1.00;1.00;;;;;;;;;;1876800;75;26268;-37
2022/02/02 07:58:36;;;;;;;1.98;1.05;;;;;;;;;;1857749;75;26356;-37
2022/02/02 08:01:04;;;;;;;0.90;0.90;;;;;;;;;;1869670;76;26283;-41
2022/02/02 08:03:38;;;;;;;0.95;0.95;;;;;;;;;;1855390;76;26385;-38
2022/02/02 08:06:02;;;;;;;1.00;1.00;;;;;;;;;;1857437;75;26272;-38
2022/02/02 08:08:34;;;;;;;2.83;1.00;;;;;;;;;;1845759;76;26333;-38
2022/02/02 08:11:03;;;;;;;0.90;0.90;;;;;;;;;;1858239;75;26316;-41
2022/02/02 08:13:38;;;;;;;1.15;1.15;;;;;;;;;;1849540;76;26285;-37
2022/02/02 08:16:00;;;;;;;1.20;1.20;;;;;;;;;;1810610;77;28282;-41
2022/02/02 08:18:25;;;;;;;1.30;1.20;;;;;;;;;;1831371;77;26787;-39
2022/02/02 08:20:53;;;;;;;1.00;1.00;;;;;;;;;;1841507;76;26347;-39
2022/02/02 08:23:21;;;;;;;1.40;1.30;;;;;;;;;;1837856;78;26221;-39
2022/02/02 08:25:48;;;;;;;2.98;1.17;;;;;;;;;;1821433;78;26292;-38
2022/02/02 08:28:19;;;;;;;0.90;0.90;;;;;;;;;;1811694;78;26250;-39
2022/02/02 08:30:46;;;;;;;1.00;1.00;;;;;;;;;;1825943;78;26779;-42
2022/02/02 08:33:19;;;;;;;0.95;0.95;;;;;;;;;;1837290;78;26265;-37
2022/02/02 08:35:48;;;;;;;1.60;1.00;;;;;;;;;;1820498;78;26350;-44
2022/02/02 08:38:38;;;;;;;1.00;1.00;;;;;;;;;;1835897;78;26828;-39
2022/02/02 08:40:56;;;;;;;1.30;1.20;;;;;;;;;;1832366;78;26386;-42
2022/02/02 08:43:42;;;;;;;1.15;1.15;;;;;;;;;;1832341;78;26736;-37
2022/02/02 08:45:54;;;;;;;2.67;1.10;;;;;;;;;;1834304;78;26279;-37
2022/02/02 08:48:25;;;;;;;1.22;1.15;;;;;;;;;;1849929;76;26225;-38
2022/02/02 08:51:01;;;;;;;1.47;0.95;;;;;;;;;;1829684;78;26287;-39
2022/02/02 08:58:32;;;;;;;0.93;0.93;;;;;;;;;;1842889;76;26316;-41
2022/02/02 09:00:54;;;;;;;1.00;1.00;;;;;;;;;;1829894;77;26217;-38
2022/02/02 09:06:09;;;;;;;1.17;1.10;;;;;;;;;;1836493;76;26797;-44
2022/02/02 09:08:36;;;;;;;1.00;1.00;;;;;;;;;;1841130;78;26790;-40
2022/02/02 09:35:43;;;;;;;1.30;1.20;;;;;;;;;;1841755;76;26366;-39
2022/02/02 09:38:10;;;;;;;1.02;0.93;;;;;;;;;;1845660;76;26225;-39
2022/02/02 09:43:09;;;;;;;1.10;1.10;;;;;;;;;;1793313;78;26358;-40
2022/02/02 09:45:37;;;;;;;1.10;1.10;;;;;;;;;;1795077;78;25423;-41
2022/02/02 09:48:15;;;;;;;1.10;1.10;;;;;;;;;;1808084;78;26231;-40
2022/02/02 09:50:45;;;;;;;1.00;1.00;;;;;;;;;;1803539;78;26291;-39
2022/02/02 09:53:08;;;;;;;1.30;1.30;;;;;;;;;;1798013;78;26234;-41
2022/02/02 09:56:04;;;;;;;1.20;1.20;;;;;;;;;;1801432;78;26380;-39
2022/02/02 09:59:27;;;;;;;1.00;1.00;;;;;;;;;;1797589;78;26795;-39
2022/02/02 10:01:27;;;;;;;1.77;1.05;;;;;;;;;;1783760;78;26313;-38
2022/02/02 10:03:53;;;;;;;1.30;1.30;;;;;;;;;;1787580;79;26356;-40
2022/02/02 10:06:25;;;;;;;1.10;1.10;;;;;;;;;;1794456;78;26337;-40
2022/02/02 10:11:52;;;;;;;1.10;1.10;;;;;;;;;;1809328;79;26683;-40
2022/02/02 10:16:44;;;;;;;1.00;1.00;;;;;;;;;;1809393;78;26307;-39
2022/02/02 10:19:13;;;;;;;1.02;1.02;;;;;;;;;;1792320;78;26239;-42
2022/02/02 10:21:41;;;;;;;1.10;1.10;;;;;;;;;;1810290;78;26273;-45
2022/02/02 10:24:08;;;;;;;1.05;1.05;;;;;;;;;;1804829;79;26805;-44
2022/02/02 10:26:37;;;;;;;1.02;1.02;;;;;;;;;;1788269;79;26334;-45
2022/02/02 10:29:09;;;;;;;1.45;1.02;;;;;;;;;;1802537;78;26758;-42
2022/02/02 10:31:41;;;;;;;1.10;1.10;;;;;;;;;;1791135;79;26771;-45
2022/02/02 10:34:12;;;;;;;1.00;1.00;;;;;;;;;;1804460;78;26694;-40
2022/02/02 10:36:41;;;;;;;1.02;1.02;;;;;;;;;;1801150;78;26329;-45
2022/02/02 10:39:15;;;;;;;1.00;1.00;;;;;;;;;;1806613;78;26781;-42
2022/02/02 10:41:49;;;;;;;1.42;1.32;;;;;;;;;;1795717;77;26364;-42
2022/02/02 10:44:20;;;;;;;1.05;1.00;;;;;;;;;;1809973;79;26736;-40
2022/02/02 10:47:06;;;;;;;1.10;1.10;;;;;;;;;;1795565;79;27377;-41
2022/02/02 10:49:39;;;;;;;1.02;1.02;;;;;;;;;;1812334;79;26278;-41
2022/02/02 10:54:50;;;;;;;1.37;1.27;;;;;;;;;;1801210;79;26752;-40
2022/02/02 10:57:15;;;;;;;1.32;1.00;;;;;;;;;;1805459;79;26297;-40
2022/02/02 11:07:24;;;;;;;1.00;1.00;;;;;;;;;;1813524;79;26275;-40
2022/02/02 11:09:52;;;;;;;1.85;1.10;;;;;;;;;;1809475;79;26681;-39
2022/02/02 11:12:21;;;;;;;0.93;0.93;;;;;;;;;;1802568;79;26396;-40
2022/02/02 11:14:49;;;;;;;1.00;1.00;;;;;;;;;;1809274;78;26294;-40
2022/02/02 11:17:30;;;;;;;1.10;1.10;;;;;;;;;;1795359;79;26317;-43
2022/02/02 11:20:02;;;;;;;0.90;0.90;;;;;;;;;;1813452;79;26747;-40
2022/02/02 11:22:31;;;;;;;1.15;1.05;;;;;;;;;;1804880;79;26811;-44
2022/02/02 11:24:59;;;;;;;1.00;1.00;;;;;;;;;;1810885;79;27200;-43
2022/02/02 11:27:34;;;;;;;0.90;0.90;;;;;;;;;;1813375;79;26267;-43
2022/02/02 11:30:03;;;;;;;1.05;1.05;;;;;;;;;;1823748;78;26226;-38
2022/02/02 11:32:47;;;;;;;1.25;1.20;;;;;;;;;;1795800;79;28197;-43
2022/02/02 11:35:55;;;;;;;2.50;1.17;;;;;;;;;;1813121;79;26279;-45
2022/02/02 11:38:04;;;;;;;1.20;1.12;;;;;;;;;;1797748;79;26272;-45
2022/02/02 11:40:34;;;;;;;2.27;1.30;;;;;;;;;;1809833;79;26659;-42
2022/02/02 11:45:48;;;;;;;1.40;1.30;;;;;;;;;;1860697;77;26275;-45
2022/02/02 11:48:33;;;;;;;2.05;1.20;;;;;;;;;;1860358;77;26293;-43
2022/02/02 11:51:02;;;;;;;3.25;1.37;;;;;;;;;;1861813;76;26372;-44
2022/02/02 11:53:45;;;;;;;5.42;1.40;;;;;;;;;;1850282;76;26287;-39
2022/02/02 11:56:13;;;;;;;5.33;1.30;;;;;;;;;;1835142;76;26663;-40
2022/02/02 11:58:40;;;;;;;1.92;1.15;;;;;;;;;;1853326;77;26254;-41
2022/02/02 12:01:20;;;;;;;1.80;1.10;;;;;;;;;;1857920;77;26325;-40
2022/02/02 12:06:58;;;;;;;3.27;1.20;;;;;;;;;;1888606;76;26351;-42
2022/02/02 12:50:15;;;;;;;0.98;0.90;;;;;;;;;;1817828;78;26229;-40
2022/02/02 13:00:11;;;;;;;0.90;0.90;;;;;;;;;;1842277;76;26357;-39
2022/02/02 13:02:40;;;;;;;0.90;0.90;;;;;;;;;;1826844;78;26550;-39
2022/02/02 13:05:08;;;;;;;0.90;0.90;;;;;;;;;;1842608;78;26372;-41
2022/02/02 13:07:37;;;;;;;0.90;0.90;;;;;;;;;;1839400;78;26273;-41
2022/02/02 13:10:06;;;;;;;1.57;0.80;;;;;;;;;;1843115;78;26280;-39
2022/02/02 13:18:35;;;;;;;1.10;0.93;;;;;;;;;;1844242;78;26234;-40
2022/02/02 13:24:33;;;;;;;0.95;0.95;;;;;;;;;;1830215;78;26227;-40
2022/02/02 13:26:21;;;;;;;1.00;1.00;;;;;;;;;;1818166;78;26310;-39
2022/02/02 13:28:53;;;;;;;0.80;0.80;;;;;;;;;;1834487;76;26762;-42
2022/02/02 13:31:22;;;;;;;0.80;0.80;;;;;;;;;;1843950;77;26277;-41
2022/02/02 13:33:52;;;;;;;1.10;0.72;;;;;;;;;;1833427;76;26376;-41
2022/02/02 13:36:39;;;;;;;0.80;0.80;;;;;;;;;;1834286;78;26833;-39
2022/02/02 13:39:17;;;;;;;0.80;0.80;;;;;;;;;;1841372;78;26630;-39
2022/02/02 13:44:40;;;;;;;0.70;0.70;;;;;;;;;;1845047;76;26839;-39
2022/02/02 13:47:21;;;;;;;1.30;0.72;;;;;;;;;;1835951;77;26304;-38
2022/02/02 13:54:49;;;;;;;0.78;0.78;;;;;;;;;;1839579;76;26386;-40
2022/02/02 14:08:58;;;;;;;0.95;0.95;;;;;;;;;;1813508;77;26307;-39
2022/02/02 14:10:43;;;;;;;0.68;0.68;;;;;;;;;;1839710;78;26312;-41
2022/02/02 14:32:13;;;;;;;0.90;0.90;;;;;;;;;;1844292;78;26764;-40
2022/02/02 14:34:40;;;;;;;0.65;0.65;;;;;;;;;;1837334;78;26208;-45
2022/02/02 14:37:14;;;;;;;0.80;0.80;;;;;;;;;;1844123;78;26288;-39
2022/02/02 14:39:55;;;;;;;0.75;0.75;;;;;;;;;;1832448;78;26332;-40
2022/02/02 14:42:16;;;;;;;0.70;0.70;;;;;;;;;;1826730;76;26230;-39
2022/02/02 14:44:44;;;;;;;0.72;0.72;;;;;;;;;;1821024;77;25780;-40
2022/02/02 14:47:17;;;;;;;0.70;0.70;;;;;;;;;;1835776;76;26233;-43
2022/02/02 14:49:53;;;;;;;0.75;0.75;;;;;;;;;;1838138;76;26317;-40
2022/02/02 14:52:36;;;;;;;0.60;0.60;;;;;;;;;;1837679;78;26241;-40
2022/02/02 15:23:46;;;;;;;0.70;0.70;;;;;;;;;;1807305;77;26344;-40
2022/02/02 15:27:36;;;;;;;0.80;0.80;;;;;;;;;;1829333;78;26342;-39
2022/02/02 15:32:31;;;;;;;0.90;0.90;;;;;;;;;;1780771;78;26645;-43
2022/02/02 15:34:58;;;;;;;0.60;0.60;;;;;;;;;;1820158;76;26348;-41
2022/02/02 15:37:33;;;;;;;0.50;0.50;;;;;;;;;;1837507;78;26824;-41
2022/02/02 15:40:05;;;;;;;0.62;0.62;;;;;;;;;;1815596;76;25334;-40
2022/02/02 15:42:43;;;;;;;0.50;0.50;;;;;;;;;;1833756;77;26701;-39
2022/02/02 15:54:47;;;;;;;0.70;0.70;;;;;;;;;;1851884;77;27260;-42
2022/02/02 15:58:34;;;;;;;0.70;0.70;;;;;;;;;;1859754;77;26762;-39
2022/02/02 16:03:34;;;;;;;0.50;0.50;;;;;;;;;;1857329;77;26371;-39
2022/02/02 16:06:08;;;;;;;0.70;0.70;;;;;;;;;;1859192;77;26279;-39
2022/02/02 16:08:31;;;;;;;0.72;0.70;;;;;;;;;;1861572;77;26633;-39
2022/02/02 16:11:06;;;;;;;0.65;0.65;;;;;;;;;;1862573;77;25266;-39
2022/02/02 16:13:49;;;;;;;0.65;0.65;;;;;;;;;;1861429;76;26382;-42
2022/02/02 16:18:55;;;;;;;0.60;0.60;;;;;;;;;;1862159;77;26850;-39
2022/02/02 16:33:00;;;;;;;0.57;0.57;;;;;;;;;;1844175;77;26303;-39
2022/02/02 16:37:44;;;;;;;0.60;0.60;;;;;;;;;;1857207;77;26398;-40
2022/02/02 16:40:08;;;;;;;0.60;0.60;;;;;;;;;;1853608;77;26345;-40
2022/02/02 16:45:22;;;;;;;0.70;0.70;;;;;;;;;;1843971;77;26253;-39
2022/02/02 16:47:50;;;;;;;0.62;0.62;;;;;;;;;;1825019;76;26806;-39
2022/02/02 16:50:21;;;;;;;0.53;0.53;;;;;;;;;;1844143;78;26316;-43
2022/02/02 16:52:50;;;;;;;0.60;0.60;;;;;;;;;;1842289;78;25918;-40
2022/02/02 16:55:33;;;;;;;0.65;0.65;;;;;;;;;;1838883;78;26801;-39
2022/02/02 16:58:02;;;;;;;0.70;0.70;;;;;;;;;;1840622;78;26382;-42
2022/02/02 17:30:34;;;;;;;0.70;0.70;;;;;;;;;;1835657;78;26327;-39
2022/02/02 17:33:11;;;;;;;0.88;0.85;;;;;;;;;;1832062;78;26286;-40
2022/02/02 17:36:01;;;;;;;0.90;0.90;;;;;;;;;;1834651;78;26299;-40
2022/02/02 17:41:09;;;;;;;1.75;1.15;;;;;;;;;;1832583;78;26290;-40
2022/02/02 17:44:01;;;;;;;1.20;1.10;;;;;;;;;;1832746;76;26280;-38
2022/02/02 18:18:51;;;;;;;1.45;1.05;;;;;;;;;;1826884;78;26862;-40
2022/02/02 18:21:14;;;;;;;5.05;1.30;;;;;;;;;;1834271;78;26792;-39
2022/02/02 18:26:33;;;;;;;1.10;1.00;;;;;;;;;;1842672;78;26354;-40
2022/02/02 18:29:09;;;;;;;1.10;1.00;;;;;;;;;;1840322;78;26303;-40
2022/02/02 18:36:44;;;;;;;2.37;1.15;;;;;;;;;;1841714;78;26824;-43
2022/02/02 18:42:57;;;;;;;2.33;1.22;;;;;;;;;;1836642;78;26292;-42
2022/02/02 18:49:59;;;;;;;3.27;1.10;;;;;;;;;;1835856;78;25752;-43
2022/02/02 18:52:41;;;;;;;0.85;0.85;;;;;;;;;;1833031;78;26332;-43
2022/02/02 18:54:55;;;;;;;0.90;0.90;;;;;;;;;;1830577;76;26581;-40
2022/02/02 19:05:21;;;;;;;0.93;0.90;;;;;;;;;;1829176;78;26744;-43
2022/02/02 19:38:26;;;;;;;2.00;1.10;;;;;;;;;;1836207;78;26756;-42
2022/02/02 19:40:41;;;;;;;0.90;0.90;;;;;;;;;;1831825;78;26279;-40
2022/02/02 20:04:53;;;;;;;3.12;1.00;;;;;;;;;;1799270;78;26424;-43
2022/02/02 20:07:42;;;;;;;1.85;1.10;;;;;;;;;;1812289;78;25358;-37
2022/02/02 20:12:31;;;;;;;1.40;1.05;;;;;;;;;;1813761;79;26270;-38
2022/02/02 20:14:57;;;;;;;1.98;1.10;;;;;;;;;;1812613;78;25811;-39
2022/02/02 20:17:26;;;;;;;1.20;1.10;;;;;;;;;;1808032;79;26261;-37
2022/02/02 20:19:57;;;;;;;1.20;1.10;;;;;;;;;;1806190;79;26742;-38
2022/02/02 20:22:26;;;;;;;1.00;1.00;;;;;;;;;;1807213;79;26628;-38
2022/02/02 20:24:59;;;;;;;1.30;1.20;;;;;;;;;;1794790;79;26330;-39
2022/02/02 20:27:29;;;;;;;1.00;1.00;;;;;;;;;;1813760;78;26294;-39
2022/02/02 20:29:56;;;;;;;2.20;1.10;;;;;;;;;;1813708;79;26271;-41
2022/02/02 20:32:24;;;;;;;1.42;1.25;;;;;;;;;;1813810;79;25736;-37
2022/02/02 20:34:51;;;;;;;0.93;0.93;;;;;;;;;;1813291;79;26543;-37
2022/02/02 20:37:20;;;;;;;2.72;1.10;;;;;;;;;;1803382;79;26394;-37
2022/02/02 20:40:07;;;;;;;1.12;1.12;;;;;;;;;;1813495;79;26270;-37
2022/02/02 20:45:34;;;;;;;1.17;1.15;;;;;;;;;;1814622;77;26259;-43
2022/02/02 21:04:18;;;;;;;1.40;1.30;;;;;;;;;;1836111;78;27003;-43
2022/02/02 21:07:24;;;;;;;1.15;1.15;;;;;;;;;;1831708;78;26714;-37
2022/02/02 21:14:17;;;;;;;1.20;1.10;;;;;;;;;;1826147;78;26322;-39
2022/02/02 21:16:46;;;;;;;1.20;1.20;;;;;;;;;;1832365;78;26334;-41
2022/02/02 21:19:23;;;;;;;1.22;1.22;;;;;;;;;;1836891;78;26803;-39
2022/02/02 21:21:53;;;;;;;1.60;1.20;;;;;;;;;;1839018;76;26282;-43
2022/02/02 21:29:25;;;;;;;1.15;1.10;;;;;;;;;;1832429;76;26313;-37
2022/02/02 21:31:52;;;;;;;2.22;1.20;;;;;;;;;;1833350;78;26276;-43
2022/02/02 21:34:22;;;;;;;1.17;1.10;;;;;;;;;;1834049;78;26773;-42
2022/02/02 21:36:49;;;;;;;1.30;1.30;;;;;;;;;;1828354;78;26418;-37
2022/02/02 21:39:22;;;;;;;1.15;1.15;;;;;;;;;;1824219;78;26361;-37
2022/02/02 21:41:53;;;;;;;1.10;1.10;;;;;;;;;;1839317;76;26327;-38
2022/02/02 21:44:21;;;;;;;1.22;1.22;;;;;;;;;;1820981;78;26302;-37
2022/02/02 21:46:49;;;;;;;1.10;1.10;;;;;;;;;;1819639;77;26356;-41
2022/02/02 21:49:20;;;;;;;0.95;0.95;;;;;;;;;;1803325;79;26348;-45
2022/02/02 21:52:02;;;;;;;1.10;1.10;;;;;;;;;;1807030;79;26227;-37
2022/02/02 21:54:28;;;;;;;2.40;1.20;;;;;;;;;;1811154;79;26411;-41
2022/02/02 21:56:59;;;;;;;1.20;1.20;;;;;;;;;;1812912;79;25311;-41
2022/02/02 21:59:26;;;;;;;1.20;1.20;;;;;;;;;;1810207;79;26671;-37
2022/02/02 22:01:53;;;;;;;1.00;1.00;;;;;;;;;;1804391;79;26329;-40
2022/02/02 22:04:21;;;;;;;1.12;1.12;;;;;;;;;;1809135;79;25677;-37
2022/02/02 22:06:48;;;;;;;2.00;1.20;;;;;;;;;;1812657;79;26699;-42
2022/02/02 22:09:15;;;;;;;1.10;1.10;;;;;;;;;;1813233;79;26325;-41
2022/02/02 22:11:43;;;;;;;1.25;1.07;;;;;;;;;;1813039;79;26738;-39
2022/02/02 22:14:16;;;;;;;1.33;1.17;;;;;;;;;;1808849;78;26301;-39
2022/02/02 22:16:40;;;;;;;1.10;1.10;;;;;;;;;;1806654;79;26772;-40
2022/02/02 22:19:08;;;;;;;1.10;1.10;;;;;;;;;;1805623;79;26298;-41
2022/02/02 22:21:35;;;;;;;1.15;1.15;;;;;;;;;;1808700;79;25229;-42
2022/02/02 22:24:03;;;;;;;1.00;1.00;;;;;;;;;;1808671;79;26251;-37
2022/02/02 22:26:31;;;;;;;1.10;1.10;;;;;;;;;;1812858;79;26290;-45
2022/02/02 22:28:58;;;;;;;1.12;1.12;;;;;;;;;;1808713;79;25922;-39
2022/02/02 22:31:25;;;;;;;0.98;0.98;;;;;;;;;;1806973;79;26695;-37
2022/02/02 22:33:52;;;;;;;1.17;1.17;;;;;;;;;;1811007;79;26711;-40
2022/02/02 22:36:20;;;;;;;1.00;1.00;;;;;;;;;;1811253;79;26627;-38
2022/02/02 22:38:48;;;;;;;1.00;1.00;;;;;;;;;;1808686;79;26314;-38
2022/02/02 22:41:15;;;;;;;1.00;1.00;;;;;;;;;;1813671;79;26267;-38
2022/02/02 22:43:49;;;;;;;1.02;1.02;;;;;;;;;;1809012;79;26223;-41
2022/02/02 22:46:18;;;;;;;0.80;0.80;;;;;;;;;;1813352;77;25745;-40
2022/02/02 22:48:45;;;;;;;0.85;0.85;;;;;;;;;;1813742;79;26537;-40
2022/02/02 22:51:13;;;;;;;0.80;0.80;;;;;;;;;;1813763;79;26302;-39
2022/02/02 22:53:40;;;;;;;1.00;1.00;;;;;;;;;;1814062;79;26373;-41
2022/02/02 22:56:07;;;;;;;0.82;0.82;;;;;;;;;;1812876;79;26357;-37
2022/02/02 22:58:35;;;;;;;0.90;0.90;;;;;;;;;;1812331;79;26215;-37
2022/02/02 23:01:02;;;;;;;0.98;0.98;;;;;;;;;;1812974;79;26600;-37
2022/02/02 23:03:30;;;;;;;1.00;1.00;;;;;;;;;;1814194;79;26293;-37
2022/02/02 23:06:01;;;;;;;1.10;1.10;;;;;;;;;;1807944;79;26775;-37
2022/02/02 23:08:29;;;;;;;0.85;0.85;;;;;;;;;;1813408;78;26281;-37
2022/02/02 23:10:56;;;;;;;0.88;0.88;;;;;;;;;;1807029;79;25307;-42
2022/02/02 23:13:24;;;;;;;0.93;0.93;;;;;;;;;;1807780;78;26336;-41
2022/02/02 23:15:58;;;;;;;0.90;0.90;;;;;;;;;;1784214;79;26481;-39
2022/02/02 23:18:26;;;;;;;1.00;1.00;;;;;;;;;;1799836;79;26283;-37
2022/02/02 23:20:56;;;;;;;0.90;0.90;;;;;;;;;;1794986;79;26266;-39
2022/02/02 23:23:27;;;;;;;1.00;1.00;;;;;;;;;;1801655;79;26817;-44
2022/02/02 23:25:55;;;;;;;1.55;0.90;;;;;;;;;;1801511;79;26234;-39
2022/02/02 23:28:26;;;;;;;0.90;0.90;;;;;;;;;;1801844;79;26235;-39
2022/02/02 23:30:53;;;;;;;0.88;0.88;;;;;;;;;;1799666;79;25250;-40
2022/02/02 23:33:21;;;;;;;0.90;0.90;;;;;;;;;;1795885;79;26287;-39
2022/02/02 23:35:48;;;;;;;0.82;0.82;;;;;;;;;;1808266;78;26325;-44
2022/02/02 23:38:16;;;;;;;0.80;0.80;;;;;;;;;;1800292;79;25348;-37
2022/02/02 23:43:26;;;;;;;0.80;0.80;;;;;;;;;;1813935;79;26282;-42
2022/02/02 23:45:57;;;;;;;0.80;0.80;;;;;;;;;;1813323;79;26722;-37
2022/02/02 23:48:25;;;;;;;1.00;1.00;;;;;;;;;;1838156;77;26393;-44
2022/02/02 23:50:54;;;;;;;0.88;0.88;;;;;;;;;;1842097;78;26315;-37
2022/02/02 23:53:22;;;;;;;0.88;0.88;;;;;;;;;;1843805;78;26285;-38
2022/02/02 23:55:52;;;;;;;0.90;0.90;;;;;;;;;;1843753;78;26248;-43
2022/02/02 23:58:29;;;;;;;0.80;0.80;;;;;;;;;;1844228;78;26245;-37
